sensor_id;sensor_type;location;lat;lon;timestamp;pressure;altitude;pressure_sealevel;temperature;humidity
59110;BME280;44895;47.438;18.978;2023-06-26T00:00:49;99942.59;;;17.48;100.00
59110;BME280;44895;47.438;18.978;2023-06-26T00:03:53;99937.78;;;17.45;100.00
59110;BME280;44895;47.438;18.978;2023-06-26T00:06:57;99943.25;;;17.45;100.00
59110;BME280;44895;47.438;18.978;2023-06-26T00:10:03;99935.69;;;17.54;100.00
59110;BME280;44895;47.438;18.978;2023-06-26T00:13:07;99941.91;;;17.51;100.00
59110;BME280;44895;47.438;18.978;2023-06-26T00:16:11;99947.25;;;17.35;100.00
59110;BME280;44895;47.438;18.978;2023-06-26T00:19:15;99939.50;;;17.37;100.00
59110;BME280;44895;47.438;18.978;2023-06-26T00:22:21;99941.78;;;17.48;100.00
59110;BME280;44895;47.438;18.978;2023-06-26T00:25:25;99945.22;;;17.44;100.00
59110;BME280;44895;47.438;18.978;2023-06-26T00:28:29;99939.25;;;17.42;100.00
59110;BME280;44895;47.438;18.978;2023-06-26T00:31:34;99943.25;;;17.45;100.00
59110;BME280;44895;47.438;18.978;2023-06-26T00:34:39;99950.13;;;17.26;100.00
59110;BME280;44895;47.438;18.978;2023-06-26T00:37:43;99948.41;;;17.22;100.00
59110;BME280;44895;47.438;18.978;2023-06-26T00:40:47;99944.88;;;17.09;100.00
59110;BME280;44895;47.438;18.978;2023-06-26T00:43:51;99944.25;;;17.03;100.00
59110;BME280;44895;47.438;18.978;2023-06-26T00:46:55;99952.97;;;17.05;100.00
59110;BME280;44895;47.438;18.978;2023-06-26T00:50:00;99948.41;;;17.09;100.00
59110;BME280;44895;47.438;18.978;2023-06-26T00:53:05;99938.75;;;16.91;100.00
59110;BME280;44895;47.438;18.978;2023-06-26T00:56:09;99940.34;;;16.92;100.00
59110;BME280;44895;47.438;18.978;2023-06-26T00:59:14;99943.97;;;16.84;100.00
59110;BME280;44895;47.438;18.978;2023-06-26T01:02:18;99936.06;;;16.70;100.00
59110;BME280;44895;47.438;18.978;2023-06-26T01:05:23;99936.03;;;16.57;100.00
59110;BME280;44895;47.438;18.978;2023-06-26T01:08:27;99935.59;;;16.68;100.00
59110;BME280;44895;47.438;18.978;2023-06-26T01:11:31;99935.94;;;16.66;100.00
59110;BME280;44895;47.438;18.978;2023-06-26T01:14:35;99934.25;;;16.74;100.00
59110;BME280;44895;47.438;18.978;2023-06-26T01:17:40;99926.88;;;16.66;100.00
59110;BME280;44895;47.438;18.978;2023-06-26T01:20:48;99929.28;;;16.55;100.00
59110;BME280;44895;47.438;18.978;2023-06-26T01:24:07;99924.22;;;16.44;100.00
59110;BME280;44895;47.438;18.978;2023-06-26T01:27:14;99921.63;;;16.27;100.00
59110;BME280;44895;47.438;18.978;2023-06-26T01:30:19;99910.81;;;16.30;100.00
59110;BME280;44895;47.438;18.978;2023-06-26T01:33:26;99904.22;;;16.44;100.00
59110;BME280;44895;47.438;18.978;2023-06-26T01:36:31;99910.25;;;16.37;100.00
59110;BME280;44895;47.438;18.978;2023-06-26T01:39:35;99914.47;;;16.35;100.00
59110;BME280;44895;47.438;18.978;2023-06-26T01:42:39;99911.59;;;16.31;100.00
59110;BME280;44895;47.438;18.978;2023-06-26T01:45:44;99909.94;;;16.18;100.00
59110;BME280;44895;47.438;18.978;2023-06-26T01:49:15;99911.94;;;16.29;100.00
59110;BME280;44895;47.438;18.978;2023-06-26T01:52:28;99918.28;;;16.21;100.00
59110;BME280;44895;47.438;18.978;2023-06-26T01:55:52;99927.25;;;16.30;100.00
59110;BME280;44895;47.438;18.978;2023-06-26T01:58:57;99919.97;;;16.13;100.00
59110;BME280;44895;47.438;18.978;2023-06-26T02:02:02;99915.81;;;16.07;100.00
59110;BME280;44895;47.438;18.978;2023-06-26T02:05:08;99919.31;;;16.17;100.00
59110;BME280;44895;47.438;18.978;2023-06-26T02:08:14;99920.44;;;16.16;100.00
59110;BME280;44895;47.438;18.978;2023-06-26T02:11:25;99926.59;;;15.91;100.00
59110;BME280;44895;47.438;18.978;2023-06-26T02:14:29;99922.25;;;15.90;100.00
59110;BME280;44895;47.438;18.978;2023-06-26T02:17:33;99929.03;;;15.84;100.00
59110;BME280;44895;47.438;18.978;2023-06-26T02:20:37;99925.22;;;15.76;100.00
59110;BME280;44895;47.438;18.978;2023-06-26T02:23:41;99933.19;;;15.90;100.00
59110;BME280;44895;47.438;18.978;2023-06-26T02:26:45;99925.91;;;16.16;100.00
59110;BME280;44895;47.438;18.978;2023-06-26T02:29:49;99933.78;;;16.17;100.00
59110;BME280;44895;47.438;18.978;2023-06-26T02:32:54;99927.66;;;15.99;100.00
59110;BME280;44895;47.438;18.978;2023-06-26T02:35:57;99919.63;;;15.94;100.00
59110;BME280;44895;47.438;18.978;2023-06-26T02:39:01;99934.31;;;15.89;100.00
59110;BME280;44895;47.438;18.978;2023-06-26T02:42:08;99938.09;;;15.76;100.00
59110;BME280;44895;47.438;18.978;2023-06-26T02:45:12;99936.63;;;15.78;100.00
59110;BME280;44895;47.438;18.978;2023-06-26T02:48:16;99939.22;;;15.75;100.00
59110;BME280;44895;47.438;18.978;2023-06-26T02:51:20;99944.19;;;15.81;100.00
59110;BME280;44895;47.438;18.978;2023-06-26T02:54:25;99947.78;;;15.73;100.00
59110;BME280;44895;47.438;18.978;2023-06-26T02:57:32;99947.78;;;15.73;100.00
59110;BME280;44895;47.438;18.978;2023-06-26T03:00:38;99942.72;;;15.84;100.00
59110;BME280;44895;47.438;18.978;2023-06-26T03:03:47;99945.56;;;15.66;100.00
59110;BME280;44895;47.438;18.978;2023-06-26T03:06:54;99953.13;;;15.70;100.00
59110;BME280;44895;47.438;18.978;2023-06-26T03:09:58;99955.22;;;15.64;100.00
59110;BME280;44895;47.438;18.978;2023-06-26T03:13:03;99956.34;;;15.63;100.00
59110;BME280;44895;47.438;18.978;2023-06-26T03:16:07;99947.78;;;15.73;100.00
59110;BME280;44895;47.438;18.978;2023-06-26T03:19:11;99951.88;;;15.58;100.00
59110;BME280;44895;47.438;18.978;2023-06-26T03:22:35;99959.81;;;15.51;100.00
59110;BME280;44895;47.438;18.978;2023-06-26T03:25:39;99962.09;;;15.40;100.00
59110;BME280;44895;47.438;18.978;2023-06-26T03:29:03;99958.19;;;15.50;100.00
59110;BME280;44895;47.438;18.978;2023-06-26T03:32:08;99955.75;;;15.57;100.00
59110;BME280;44895;47.438;18.978;2023-06-26T03:35:12;99957.88;;;15.52;100.00
59110;BME280;44895;47.438;18.978;2023-06-26T03:38:16;99951.88;;;15.58;100.00
59110;BME280;44895;47.438;18.978;2023-06-26T03:41:24;99957.63;;;15.65;100.00
59110;BME280;44895;47.438;18.978;2023-06-26T03:44:29;99951.16;;;15.70;100.00
59110;BME280;44895;47.438;18.978;2023-06-26T03:47:33;99958.59;;;15.70;100.00
59110;BME280;44895;47.438;18.978;2023-06-26T03:50:37;99962.13;;;15.70;100.00
59110;BME280;44895;47.438;18.978;2023-06-26T03:53:41;99967.25;;;15.72;100.00
59110;BME280;44895;47.438;18.978;2023-06-26T03:56:45;99967.53;;;15.79;100.00
59110;BME280;44895;47.438;18.978;2023-06-26T03:59:49;99962.38;;;15.86;100.00
59110;BME280;44895;47.438;18.978;2023-06-26T04:02:55;99966.13;;;15.73;100.00
59110;BME280;44895;47.438;18.978;2023-06-26T04:05:59;99970.66;;;15.98;100.00
59110;BME280;44895;47.438;18.978;2023-06-26T04:09:03;99975.09;;;16.12;100.00
59110;BME280;44895;47.438;18.978;2023-06-26T04:12:08;99952.84;;;16.35;100.00
59110;BME280;44895;47.438;18.978;2023-06-26T04:15:13;99960.34;;;16.59;100.00
59110;BME280;44895;47.438;18.978;2023-06-26T04:18:17;99966.97;;;16.58;100.00
59110;BME280;44895;47.438;18.978;2023-06-26T04:21:24;99971.34;;;16.92;100.00
59110;BME280;44895;47.438;18.978;2023-06-26T04:24:28;99967.06;;;17.28;100.00
59110;BME280;44895;47.438;18.978;2023-06-26T04:27:32;99972.78;;;17.36;100.00
59110;BME280;44895;47.438;18.978;2023-06-26T04:30:36;99968.19;;;17.27;100.00
59110;BME280;44895;47.438;18.978;2023-06-26T04:33:42;99970.81;;;17.24;100.00
59110;BME280;44895;47.438;18.978;2023-06-26T04:36:46;99963.41;;;17.61;100.00
59110;BME280;44895;47.438;18.978;2023-06-26T04:39:51;99962.13;;;17.47;100.00
59110;BME280;44895;47.438;18.978;2023-06-26T04:42:55;99971.03;;;17.68;100.00
59110;BME280;44895;47.438;18.978;2023-06-26T04:45:59;99974.38;;;17.74;100.00
59110;BME280;44895;47.438;18.978;2023-06-26T04:49:03;99977.09;;;17.99;100.00
59110;BME280;44895;47.438;18.978;2023-06-26T04:52:07;99971.03;;;18.05;100.00
59110;BME280;44895;47.438;18.978;2023-06-26T04:55:11;99974.47;;;18.02;100.00
59110;BME280;44895;47.438;18.978;2023-06-26T04:58:15;99974.78;;;18.25;100.00
59110;BME280;44895;47.438;18.978;2023-06-26T05:01:19;99966.84;;;18.24;100.00
59110;BME280;44895;47.438;18.978;2023-06-26T05:04:23;99977.78;;;18.49;100.00
59110;BME280;44895;47.438;18.978;2023-06-26T05:07:28;99968.19;;;18.71;100.00
59110;BME280;44895;47.438;18.978;2023-06-26T05:10:32;99969.66;;;18.97;100.00
59110;BME280;44895;47.438;18.978;2023-06-26T05:13:36;99968.81;;;19.25;100.00
59110;BME280;44895;47.438;18.978;2023-06-26T05:16:40;99970.28;;;19.54;100.00
59110;BME280;44895;47.438;18.978;2023-06-26T05:19:45;99961.84;;;21.20;100.00
59110;BME280;44895;47.438;18.978;2023-06-26T05:22:50;99942.59;;;26.97;100.00
59110;BME280;44895;47.438;18.978;2023-06-26T05:25:55;99941.16;;;33.26;62.62
59110;BME280;44895;47.438;18.978;2023-06-26T05:28:59;99945.59;;;36.21;47.53
59110;BME280;44895;47.438;18.978;2023-06-26T05:32:04;99939.66;;;38.43;40.18
59110;BME280;44895;47.438;18.978;2023-06-26T05:35:09;99939.94;;;39.37;38.27
59110;BME280;44895;47.438;18.978;2023-06-26T05:38:15;99938.78;;;40.23;34.36
59110;BME280;44895;47.438;18.978;2023-06-26T05:41:19;99941.91;;;40.63;34.15
59110;BME280;44895;47.438;18.978;2023-06-26T05:44:23;99951.31;;;42.29;29.97
59110;BME280;44895;47.438;18.978;2023-06-26T05:47:27;99934.03;;;43.67;29.10
59110;BME280;44895;47.438;18.978;2023-06-26T05:50:31;99942.34;;;43.18;28.84
59110;BME280;44895;47.438;18.978;2023-06-26T05:53:35;99943.41;;;44.04;28.86
59110;BME280;44895;47.438;18.978;2023-06-26T05:56:40;99938.63;;;44.73;27.74
59110;BME280;44895;47.438;18.978;2023-06-26T05:59:46;99938.09;;;46.41;26.37
59110;BME280;44895;47.438;18.978;2023-06-26T06:02:51;99934.38;;;45.81;26.03
59110;BME280;44895;47.438;18.978;2023-06-26T06:05:58;99925.09;;;45.88;25.83
59110;BME280;44895;47.438;18.978;2023-06-26T06:09:02;99924.44;;;46.15;25.87
59110;BME280;44895;47.438;18.978;2023-06-26T06:12:07;99924.13;;;44.90;26.37
59110;BME280;44895;47.438;18.978;2023-06-26T06:15:11;99926.41;;;45.36;26.42
59110;BME280;44895;47.438;18.978;2023-06-26T06:18:17;99925.66;;;46.79;25.04
59110;BME280;44895;47.438;18.978;2023-06-26T06:21:21;99926.19;;;46.77;26.30
59110;BME280;44895;47.438;18.978;2023-06-26T06:24:25;99941.25;;;43.27;27.93
59110;BME280;44895;47.438;18.978;2023-06-26T06:27:28;99932.38;;;44.75;27.25
59110;BME280;44895;47.438;18.978;2023-06-26T06:30:32;99923.97;;;43.97;27.21
59110;BME280;44895;47.438;18.978;2023-06-26T06:33:36;99933.69;;;45.18;25.51
59110;BME280;44895;47.438;18.978;2023-06-26T06:36:40;99931.72;;;45.83;25.98
59110;BME280;44895;47.438;18.978;2023-06-26T06:39:45;99937.63;;;44.10;27.25
59110;BME280;44895;47.438;18.978;2023-06-26T06:42:48;99940.22;;;37.73;32.35
59110;BME280;44895;47.438;18.978;2023-06-26T06:45:54;99931.63;;;38.92;31.83
59110;BME280;44895;47.438;18.978;2023-06-26T06:48:58;99937.19;;;36.55;35.56
59110;BME280;44895;47.438;18.978;2023-06-26T06:52:03;99937.31;;;36.08;36.13
59110;BME280;44895;47.438;18.978;2023-06-26T06:55:08;99942.41;;;33.60;38.57
59110;BME280;44895;47.438;18.978;2023-06-26T06:58:12;99944.31;;;31.82;43.91
59110;BME280;44895;47.438;18.978;2023-06-26T07:01:17;99945.59;;;31.48;44.40
59110;BME280;44895;47.438;18.978;2023-06-26T07:04:21;99948.19;;;32.01;43.20
59110;BME280;44895;47.438;18.978;2023-06-26T07:07:28;99940.84;;;30.63;45.85
59110;BME280;44895;47.438;18.978;2023-06-26T07:10:33;99946.66;;;29.51;48.54
59110;BME280;44895;47.438;18.978;2023-06-26T07:13:37;99936.66;;;29.50;49.63
59110;BME280;44895;47.438;18.978;2023-06-26T07:16:41;99946.31;;;28.74;54.05
59110;BME280;44895;47.438;18.978;2023-06-26T07:19:45;99943.66;;;28.91;55.03
59110;BME280;44895;47.438;18.978;2023-06-26T07:22:50;99946.94;;;27.89;57.88
59110;BME280;44895;47.438;18.978;2023-06-26T07:25:55;99946.34;;;27.25;63.44
59110;BME280;44895;47.438;18.978;2023-06-26T07:28:59;99944.56;;;27.88;62.19
59110;BME280;44895;47.438;18.978;2023-06-26T07:32:04;99940.53;;;28.85;57.78
59110;BME280;44895;47.438;18.978;2023-06-26T07:35:08;99946.81;;;29.44;56.08
59110;BME280;44895;47.438;18.978;2023-06-26T07:38:12;99930.50;;;28.88;57.57
59110;BME280;44895;47.438;18.978;2023-06-26T07:41:17;99946.69;;;28.73;57.37
59110;BME280;44895;47.438;18.978;2023-06-26T07:44:21;99947.06;;;29.02;52.44
59110;BME280;44895;47.438;18.978;2023-06-26T07:47:25;99946.19;;;28.51;56.63
59110;BME280;44895;47.438;18.978;2023-06-26T07:50:30;99950.75;;;28.06;60.44
59110;BME280;44895;47.438;18.978;2023-06-26T07:53:33;99948.97;;;28.20;60.44
59110;BME280;44895;47.438;18.978;2023-06-26T07:56:56;99951.66;;;28.30;63.40
59110;BME280;44895;47.438;18.978;2023-06-26T08:00:00;99950.84;;;27.57;67.73
59110;BME280;44895;47.438;18.978;2023-06-26T08:03:04;99953.94;;;27.66;66.78
59110;BME280;44895;47.438;18.978;2023-06-26T08:06:08;99945.25;;;27.12;69.20
59110;BME280;44895;47.438;18.978;2023-06-26T08:09:12;99949.84;;;27.33;64.46
59110;BME280;44895;47.438;18.978;2023-06-26T08:12:16;99942.56;;;27.01;66.59
59110;BME280;44895;47.438;18.978;2023-06-26T08:15:20;99941.09;;;27.76;67.16
59110;BME280;44895;47.438;18.978;2023-06-26T08:18:25;99939.53;;;26.77;70.71
59110;BME280;44895;47.438;18.978;2023-06-26T08:21:29;99945.19;;;27.68;66.15
59110;BME280;44895;47.438;18.978;2023-06-26T08:24:33;99957.00;;;27.38;68.78
59110;BME280;44895;47.438;18.978;2023-06-26T08:27:36;99950.81;;;27.12;66.62
59110;BME280;44895;47.438;18.978;2023-06-26T08:30:40;99947.34;;;26.97;72.10
59110;BME280;44895;47.438;18.978;2023-06-26T08:33:44;99948.72;;;26.70;70.00
59110;BME280;44895;47.438;18.978;2023-06-26T08:36:48;99952.00;;;26.47;77.78
59110;BME280;44895;47.438;18.978;2023-06-26T08:39:52;99949.41;;;26.08;82.55
59110;BME280;44895;47.438;18.978;2023-06-26T08:42:56;99954.47;;;26.34;83.21
59110;BME280;44895;47.438;18.978;2023-06-26T08:46:00;99935.38;;;26.40;81.89
59110;BME280;44895;47.438;18.978;2023-06-26T08:49:12;99948.41;;;26.54;80.57
59110;BME280;44895;47.438;18.978;2023-06-26T08:52:22;99946.53;;;26.33;76.84
59110;BME280;44895;47.438;18.978;2023-06-26T08:55:28;99937.44;;;26.92;73.41
59110;BME280;44895;47.438;18.978;2023-06-26T08:58:33;99942.19;;;26.95;72.59
59110;BME280;44895;47.438;18.978;2023-06-26T09:01:39;99942.47;;;26.48;73.66
59110;BME280;44895;47.438;18.978;2023-06-26T09:04:44;99944.34;;;26.69;80.25
59110;BME280;44895;47.438;18.978;2023-06-26T09:07:48;99946.81;;;26.57;87.81
59110;BME280;44895;47.438;18.978;2023-06-26T09:10:52;99934.50;;;26.54;82.19
59110;BME280;44895;47.438;18.978;2023-06-26T09:13:56;99936.00;;;26.66;76.20
59110;BME280;44895;47.438;18.978;2023-06-26T09:17:00;99934.66;;;26.92;82.49
59110;BME280;44895;47.438;18.978;2023-06-26T09:20:06;99937.94;;;26.80;76.41
59110;BME280;44895;47.438;18.978;2023-06-26T09:23:12;99933.06;;;26.95;79.59
59110;BME280;44895;47.438;18.978;2023-06-26T09:26:16;99927.06;;;26.96;76.54
59110;BME280;44895;47.438;18.978;2023-06-26T09:29:20;99936.75;;;26.77;74.15
59110;BME280;44895;47.438;18.978;2023-06-26T09:32:24;99934.19;;;27.05;83.79
59110;BME280;44895;47.438;18.978;2023-06-26T09:35:29;99931.47;;;26.94;77.51
59110;BME280;44895;47.438;18.978;2023-06-26T09:38:34;99926.25;;;26.99;74.06
59110;BME280;44895;47.438;18.978;2023-06-26T09:41:41;99932.44;;;27.22;79.47
59110;BME280;44895;47.438;18.978;2023-06-26T09:44:46;99925.06;;;26.97;81.46
59110;BME280;44895;47.438;18.978;2023-06-26T09:47:50;99931.97;;;26.78;78.30
59110;BME280;44895;47.438;18.978;2023-06-26T09:50:55;99922.91;;;27.19;78.39
59110;BME280;44895;47.438;18.978;2023-06-26T09:54:00;99919.19;;;27.33;78.48
59110;BME280;44895;47.438;18.978;2023-06-26T09:57:15;99921.69;;;27.24;71.17
59110;BME280;44895;47.438;18.978;2023-06-26T10:00:20;99921.59;;;27.31;77.20
59110;BME280;44895;47.438;18.978;2023-06-26T10:03:24;99924.72;;;27.44;78.47
59110;BME280;44895;47.438;18.978;2023-06-26T10:06:32;99922.31;;;27.42;75.98
59110;BME280;44895;47.438;18.978;2023-06-26T10:09:41;99913.06;;;27.07;80.24
59110;BME280;44895;47.438;18.978;2023-06-26T10:12:48;99914.34;;;26.92;91.74
59110;BME280;44895;47.438;18.978;2023-06-26T10:15:53;99900.53;;;26.81;88.10
59110;BME280;44895;47.438;18.978;2023-06-26T10:19:02;99902.31;;;27.06;83.91
59110;BME280;44895;47.438;18.978;2023-06-26T10:22:09;99901.69;;;27.32;78.82
59110;BME280;44895;47.438;18.978;2023-06-26T10:25:19;99890.88;;;27.42;79.01
59110;BME280;44895;47.438;18.978;2023-06-26T10:28:27;99898.47;;;27.34;75.70
59110;BME280;44895;47.438;18.978;2023-06-26T10:31:33;99903.91;;;27.07;79.46
59110;BME280;44895;47.438;18.978;2023-06-26T10:34:38;99900.06;;;26.90;82.55
59110;BME280;44895;47.438;18.978;2023-06-26T10:37:48;99899.78;;;26.77;91.78
59110;BME280;44895;47.438;18.978;2023-06-26T10:40:53;99899.53;;;26.46;84.16
59110;BME280;44895;47.438;18.978;2023-06-26T10:44:15;99910.19;;;26.58;91.88
59110;BME280;44895;47.438;18.978;2023-06-26T10:47:31;99905.50;;;26.44;90.36
59110;BME280;44895;47.438;18.978;2023-06-26T10:50:36;99901.56;;;26.42;91.00
59110;BME280;44895;47.438;18.978;2023-06-26T10:53:41;99900.41;;;26.95;85.42
59110;BME280;44895;47.438;18.978;2023-06-26T10:56:50;99899.84;;;27.15;81.75
59110;BME280;44895;47.438;18.978;2023-06-26T11:00:14;99891.16;;;27.51;71.86
59110;BME280;44895;47.438;18.978;2023-06-26T11:03:29;99894.75;;;27.52;71.86
59110;BME280;44895;47.438;18.978;2023-06-26T11:06:35;99898.97;;;27.67;74.04
59110;BME280;44895;47.438;18.978;2023-06-26T11:10:00;99905.59;;;27.42;77.94
59110;BME280;44895;47.438;18.978;2023-06-26T11:13:04;99895.19;;;27.01;87.01
59110;BME280;44895;47.438;18.978;2023-06-26T11:16:11;99898.59;;;27.19;79.27
59110;BME280;44895;47.438;18.978;2023-06-26T11:19:19;99898.47;;;27.34;80.70
59110;BME280;44895;47.438;18.978;2023-06-26T11:22:24;99890.38;;;27.50;79.71
59110;BME280;44895;47.438;18.978;2023-06-26T11:25:29;99890.44;;;27.43;81.09
59110;BME280;44895;47.438;18.978;2023-06-26T11:28:34;99888.63;;;27.22;78.05
59110;BME280;44895;47.438;18.978;2023-06-26T11:31:40;99878.41;;;27.50;78.21
59110;BME280;44895;47.438;18.978;2023-06-26T11:34:47;99879.81;;;27.69;74.94
59110;BME280;44895;47.438;18.978;2023-06-26T11:37:55;99876.50;;;27.78;73.83
59110;BME280;44895;47.438;18.978;2023-06-26T11:41:00;99873.44;;;27.69;76.61
59110;BME280;44895;47.438;18.978;2023-06-26T11:44:09;99876.50;;;27.78;68.59
59110;BME280;44895;47.438;18.978;2023-06-26T11:47:15;99877.56;;;27.91;74.29
59110;BME280;44895;47.438;18.978;2023-06-26T11:50:19;99873.06;;;28.01;69.24
59110;BME280;44895;47.438;18.978;2023-06-26T11:53:23;99872.59;;;28.10;69.20
59110;BME280;44895;47.438;18.978;2023-06-26T11:56:26;99872.75;;;28.26;66.33
59110;BME280;44895;47.438;18.978;2023-06-26T11:59:37;99868.38;;;28.25;65.44
59110;BME280;44895;47.438;18.978;2023-06-26T12:02:43;99859.91;;;28.33;68.59
59110;BME280;44895;47.438;18.978;2023-06-26T12:05:47;99872.31;;;28.55;69.88
59110;BME280;44895;47.438;18.978;2023-06-26T12:08:54;99866.81;;;28.52;62.61
59110;BME280;44895;47.438;18.978;2023-06-26T12:11:58;99867.69;;;28.45;61.75
59110;BME280;44895;47.438;18.978;2023-06-26T12:15:04;99865.91;;;28.58;62.18
59110;BME280;44895;47.438;18.978;2023-06-26T12:18:09;99862.25;;;28.61;61.76
59110;BME280;44895;47.438;18.978;2023-06-26T12:24:44;99861.41;;;28.10;60.70
59110;BME280;44895;47.438;18.978;2023-06-26T12:27:49;99863.66;;;27.88;64.21
59110;BME280;44895;47.438;18.978;2023-06-26T12:31:16;99861.28;;;27.86;66.72
59110;BME280;44895;47.438;18.978;2023-06-26T12:34:26;99856.63;;;27.76;67.33
59110;BME280;44895;47.438;18.978;2023-06-26T12:37:37;99855.63;;;27.59;68.92
59110;BME280;44895;47.438;18.978;2023-06-26T12:40:45;99853.47;;;27.74;69.17
59110;BME280;44895;47.438;18.978;2023-06-26T12:43:55;99852.75;;;27.66;67.08
59110;BME280;44895;47.438;18.978;2023-06-26T12:47:01;99860.34;;;27.65;66.43
59110;BME280;44895;47.438;18.978;2023-06-26T12:50:05;99848.34;;;27.69;62.53
59110;BME280;44895;47.438;18.978;2023-06-26T12:53:09;99849.22;;;27.62;66.56
59110;BME280;44895;47.438;18.978;2023-06-26T12:56:12;99854.94;;;27.47;65.99
59110;BME280;44895;47.438;18.978;2023-06-26T12:59:16;99856.72;;;27.69;68.18
59110;BME280;44895;47.438;18.978;2023-06-26T13:02:20;99857.13;;;27.98;65.32
59110;BME280;44895;47.438;18.978;2023-06-26T13:05:24;99853.34;;;27.85;65.40
59110;BME280;44895;47.438;18.978;2023-06-26T13:08:28;99852.66;;;28.08;64.95
59110;BME280;44895;47.438;18.978;2023-06-26T13:11:33;99843.81;;;28.13;64.23
59110;BME280;44895;47.438;18.978;2023-06-26T13:14:37;99843.34;;;27.87;61.54
59110;BME280;44895;47.438;18.978;2023-06-26T13:17:42;99837.66;;;27.63;66.76
59110;BME280;44895;47.438;18.978;2023-06-26T13:20:46;99838.16;;;27.55;64.90
59110;BME280;44895;47.438;18.978;2023-06-26T13:23:50;99841.00;;;27.47;69.11
59110;BME280;44895;47.438;18.978;2023-06-26T13:26:54;99832.25;;;27.49;71.21
59110;BME280;44895;47.438;18.978;2023-06-26T13:29:58;99842.63;;;27.45;68.08
59110;BME280;44895;47.438;18.978;2023-06-26T13:33:02;99830.53;;;27.59;65.57
59110;BME280;44895;47.438;18.978;2023-06-26T13:36:06;99828.69;;;27.79;66.54
59110;BME280;44895;47.438;18.978;2023-06-26T13:39:10;99824.09;;;27.96;63.24
59110;BME280;44895;47.438;18.978;2023-06-26T13:42:16;99815.25;;;28.02;65.04
59110;BME280;44895;47.438;18.978;2023-06-26T13:45:20;99824.28;;;28.13;62.98
59110;BME280;44895;47.438;18.978;2023-06-26T13:48:24;99817.31;;;28.25;59.56
59110;BME280;44895;47.438;18.978;2023-06-26T13:51:28;99810.28;;;28.44;62.48
59110;BME280;44895;47.438;18.978;2023-06-26T13:54:32;99818.28;;;28.42;60.13
59110;BME280;44895;47.438;18.978;2023-06-26T13:57:36;99805.00;;;28.22;59.07
59110;BME280;44895;47.438;18.978;2023-06-26T14:00:45;99802.09;;;28.29;59.36
59110;BME280;44895;47.438;18.978;2023-06-26T14:03:49;99802.44;;;28.35;62.21
59110;BME280;44895;47.438;18.978;2023-06-26T14:06:53;99798.13;;;28.30;60.10
59110;BME280;44895;47.438;18.978;2023-06-26T14:09:57;99803.69;;;28.03;64.04
59110;BME280;44895;47.438;18.978;2023-06-26T14:13:03;99813.34;;;27.95;61.24
59110;BME280;44895;47.438;18.978;2023-06-26T14:16:07;99804.72;;;27.86;62.86
59110;BME280;44895;47.438;18.978;2023-06-26T14:19:12;99812.75;;;27.80;64.64
59110;BME280;44895;47.438;18.978;2023-06-26T14:22:18;99802.31;;;27.84;59.25
59110;BME280;44895;47.438;18.978;2023-06-26T14:25:21;99813.94;;;27.79;61.00
59110;BME280;44895;47.438;18.978;2023-06-26T14:28:25;99808.75;;;27.81;63.45
59110;BME280;44895;47.438;18.978;2023-06-26T14:31:30;99809.06;;;27.56;60.89
59110;BME280;44895;47.438;18.978;2023-06-26T14:34:34;99809.75;;;27.63;64.18
59110;BME280;44895;47.438;18.978;2023-06-26T14:37:38;99801.13;;;27.54;62.50
59110;BME280;44895;47.438;18.978;2023-06-26T14:40:43;99797.94;;;27.52;60.00
59110;BME280;44895;47.438;18.978;2023-06-26T14:43:46;99797.72;;;27.70;60.05
59110;BME280;44895;47.438;18.978;2023-06-26T14:46:50;99810.72;;;27.80;61.83
59110;BME280;44895;47.438;18.978;2023-06-26T14:49:54;99803.88;;;27.58;65.32
59110;BME280;44895;47.438;18.978;2023-06-26T14:52:59;99804.97;;;27.64;63.73
59110;BME280;44895;47.438;18.978;2023-06-26T14:56:03;99797.31;;;27.72;63.76
59110;BME280;44895;47.438;18.978;2023-06-26T14:59:07;99788.84;;;27.48;60.99
59110;BME280;44895;47.438;18.978;2023-06-26T15:02:11;99798.72;;;27.53;64.98
59110;BME280;44895;47.438;18.978;2023-06-26T15:05:15;99792.66;;;27.61;61.49
59110;BME280;44895;47.438;18.978;2023-06-26T15:08:19;99785.41;;;27.67;62.20
59110;BME280;44895;47.438;18.978;2023-06-26T15:11:23;99791.22;;;27.80;59.84
59110;BME280;44895;47.438;18.978;2023-06-26T15:14:27;99792.91;;;27.74;58.97
59110;BME280;44895;47.438;18.978;2023-06-26T15:17:31;99782.50;;;27.78;57.50
59110;BME280;44895;47.438;18.978;2023-06-26T15:20:35;99780.38;;;27.86;59.04
59110;BME280;44895;47.438;18.978;2023-06-26T15:23:39;99773.69;;;27.80;56.44
59110;BME280;44895;47.438;18.978;2023-06-26T15:26:43;99772.06;;;27.82;54.88
59110;BME280;44895;47.438;18.978;2023-06-26T15:29:47;99775.50;;;27.94;54.18
59110;BME280;44895;47.438;18.978;2023-06-26T15:32:51;99776.00;;;27.85;56.53
59110;BME280;44895;47.438;18.978;2023-06-26T15:35:55;99775.28;;;27.81;54.75
59110;BME280;44895;47.438;18.978;2023-06-26T15:38:59;99767.38;;;27.76;55.14
59110;BME280;44895;47.438;18.978;2023-06-26T15:42:03;99771.41;;;27.71;56.97
59110;BME280;44895;47.438;18.978;2023-06-26T15:45:08;99773.19;;;27.89;54.08
59110;BME280;44895;47.438;18.978;2023-06-26T15:48:12;99772.03;;;27.86;54.27
59110;BME280;44895;47.438;18.978;2023-06-26T15:51:16;99759.66;;;27.87;53.49
59110;BME280;44895;47.438;18.978;2023-06-26T15:54:20;99765.41;;;27.73;55.21
59110;BME280;44895;47.438;18.978;2023-06-26T15:57:24;99760.63;;;27.73;53.36
59110;BME280;44895;47.438;18.978;2023-06-26T16:00:28;99763.91;;;27.68;54.18
59110;BME280;44895;47.438;18.978;2023-06-26T16:03:32;99765.53;;;27.65;56.04
59110;BME280;44895;47.438;18.978;2023-06-26T16:06:37;99766.34;;;27.62;58.68
59110;BME280;44895;47.438;18.978;2023-06-26T16:09:40;99765.16;;;27.63;56.44